Time;durP1;ratioP1;P1;durP2;ratioP2;P2;SDS_P1;SDS_P2;PMS_P1;PMS_P2;Temp;Humidity;BMP_temperature;BMP_pressure;BME280_temperature;BME280_humidity;BME280_pressure;Samples;Min_cycle;Max_cycle;Signal;HPM_P1;HPM_P2
2020/12/21 00:00:17;;;;;;;6.88;2.05;;;7.70;96.30;;;;;;5075520;28;20484;-67
2020/12/21 00:07:02;;;;;;;10.50;2.58;;;7.70;96.30;;;;;;5075669;28;20145;-67
2020/12/21 00:09:34;;;;;;;5.97;2.33;;;7.60;96.60;;;;;;5076458;28;20041;-67
2020/12/21 00:12:03;;;;;;;5.18;2.20;;;7.60;96.30;;;;;;5075766;28;20105;-67
2020/12/21 00:14:34;;;;;;;6.63;2.00;;;7.50;96.20;;;;;;5075793;28;20060;-67
2020/12/21 00:17:03;;;;;;;7.75;2.38;;;7.60;96.30;;;;;;5071755;28;20041;-68
2020/12/21 00:19:38;;;;;;;4.40;2.08;;;7.40;96.30;;;;;;5069994;28;20044;-67
2020/12/21 00:22:05;;;;;;;9.57;2.40;;;7.50;96.50;;;;;;5075181;28;20040;-67
2020/12/21 00:24:34;;;;;;;8.55;3.13;;;7.50;96.50;;;;;;5075640;28;20051;-67
2020/12/21 00:27:07;;;;;;;7.65;2.30;;;7.50;96.50;;;;;;5056119;28;20041;-67
2020/12/21 00:29:36;;;;;;;5.88;2.28;;;7.60;96.60;;;;;;5054637;28;20409;-67
2020/12/21 00:32:06;;;;;;;13.00;2.80;;;7.50;96.40;;;;;;5071254;28;20063;-67
2020/12/21 00:34:37;;;;;;;6.43;2.30;;;7.50;96.40;;;;;;5075446;28;20036;-67
2020/12/21 00:37:10;;;;;;;6.68;2.35;;;7.50;96.50;;;;;;5075240;28;20032;-67
2020/12/21 00:39:38;;;;;;;8.60;2.75;;;7.40;96.40;;;;;;5075341;28;20076;-67
2020/12/21 00:42:10;;;;;;;10.15;2.78;;;7.40;96.50;;;;;;5075250;28;20037;-67
2020/12/21 00:45:13;;;;;;;9.10;2.60;;;7.40;96.70;;;;;;5071518;28;20385;-67
2020/12/21 00:47:43;;;;;;;8.77;2.63;;;7.40;96.60;;;;;;5068520;28;20040;-67
2020/12/21 00:50:19;;;;;;;13.60;3.35;;;7.40;96.70;;;;;;5075403;28;20548;-67
2020/12/21 01:00:26;;;;;;;7.35;2.65;;;7.30;96.60;;;;;;5060759;28;20412;-67
2020/12/21 01:07:08;;;;;;;8.35;2.72;;;7.30;96.60;;;;;;5074781;28;20103;-67
2020/12/21 01:09:45;;;;;;;7.50;2.75;;;7.30;96.60;;;;;;5070061;28;20154;-67
2020/12/21 01:12:12;;;;;;;8.98;2.90;;;7.20;96.60;;;;;;5074423;28;20037;-67
2020/12/21 01:14:39;;;;;;;8.18;3.10;;;7.20;96.30;;;;;;5074994;28;20400;-67
2020/12/21 01:17:16;;;;;;;11.63;2.70;;;7.20;96.70;;;;;;5073872;28;20045;-67
2020/12/21 01:19:54;;;;;;;5.40;2.25;;;7.20;96.60;;;;;;5056989;28;20037;-68
2020/12/21 01:22:45;;;;;;;5.47;2.58;;;7.10;96.60;;;;;;5074240;28;20040;-68
2020/12/21 01:32:18;;;;;;;9.40;2.65;;;7.00;96.60;;;;;;5069633;28;20040;-67
2020/12/21 01:35:02;;;;;;;5.78;2.58;;;7.00;96.70;;;;;;5072809;28;20037;-67
2020/12/21 01:37:37;;;;;;;10.63;3.20;;;7.00;96.70;;;;;;5056046;28;20052;-67
2020/12/21 01:40:06;;;;;;;7.00;2.70;;;6.90;96.80;;;;;;5073821;28;20080;-66
2020/12/21 01:42:40;;;;;;;8.95;3.08;;;6.90;96.60;;;;;;5073823;28;20078;-67
2020/12/21 01:45:15;;;;;;;12.48;2.67;;;6.90;96.70;;;;;;5056012;28;20116;-67
2020/12/21 01:48:00;;;;;;;8.52;2.70;;;6.90;96.90;;;;;;5073826;28;20076;-67
2020/12/21 01:50:26;;;;;;;7.25;2.50;;;6.90;96.70;;;;;;5063180;28;20438;-67
2020/12/21 01:57:24;;;;;;;10.07;2.70;;;6.80;96.80;;;;;;5047012;28;20084;-67
2020/12/21 01:59:56;;;;;;;7.20;2.25;;;6.80;96.70;;;;;;5053786;28;20044;-67
2020/12/21 02:02:24;;;;;;;6.72;2.25;;;6.80;97.10;;;;;;5068274;28;20048;-67
2020/12/21 02:04:56;;;;;;;9.30;2.50;;;6.70;96.80;;;;;;5072102;28;20041;-67
2020/12/21 02:07:28;;;;;;;7.53;2.22;;;6.70;97.00;;;;;;5073742;28;20041;-67
2020/12/21 02:09:54;;;;;;;8.32;2.70;;;6.80;96.70;;;;;;5073452;28;20132;-67
2020/12/21 02:12:26;;;;;;;7.75;2.50;;;6.60;96.80;;;;;;5073572;28;20127;-67
2020/12/21 02:14:55;;;;;;;6.07;2.15;;;6.60;97.00;;;;;;5072949;28;20101;-67
2020/12/21 02:17:27;;;;;;;9.48;2.45;;;6.60;96.90;;;;;;5072856;28;20049;-67
2020/12/21 02:20:05;;;;;;;6.45;2.08;;;6.60;96.80;;;;;;5072966;28;20040;-66
2020/12/21 02:22:43;;;;;;;8.27;2.25;;;6.60;97.10;;;;;;5054438;28;20041;-67
2020/12/21 02:25:36;;;;;;;9.70;2.20;;;6.50;97.00;;;;;;5073285;28;20042;-67
2020/12/21 02:28:07;;;;;;;6.82;2.05;;;6.50;97.00;;;;;;5058896;28;20071;-67
2020/12/21 02:30:39;;;;;;;8.32;2.15;;;6.50;97.10;;;;;;5073464;28;20045;-67
2020/12/21 02:33:33;;;;;;;4.00;1.80;;;6.50;97.10;;;;;;5073121;28;20052;-67
2020/12/21 02:39:56;;;;;;;6.80;2.05;;;6.40;97.00;;;;;;5072965;28;20047;-67
2020/12/21 02:42:28;;;;;;;3.85;1.83;;;6.40;97.00;;;;;;5073317;28;20044;-67
2020/12/21 02:44:55;;;;;;;5.82;2.05;;;6.40;97.00;;;;;;5068680;28;20131;-67
2020/12/21 02:47:26;;;;;;;5.63;2.42;;;6.40;97.00;;;;;;5067689;28;20041;-67
2020/12/21 02:49:54;;;;;;;6.07;2.08;;;6.30;97.00;;;;;;5073113;28;20492;-67
2020/12/21 02:52:22;;;;;;;8.43;2.30;;;6.30;97.00;;;;;;5072946;28;20431;-67
2020/12/21 02:54:55;;;;;;;5.20;2.20;;;6.30;96.90;;;;;;5073117;28;20092;-67
2020/12/21 02:57:25;;;;;;;8.73;2.60;;;6.30;97.10;;;;;;5073323;28;20045;-67
2020/12/21 02:59:55;;;;;;;13.57;2.85;;;6.30;97.20;;;;;;5071993;28;20041;-67
2020/12/21 03:02:57;;;;;;;11.38;2.60;;;6.30;97.20;;;;;;5072507;28;20045;-67
2020/12/21 03:09:54;;;;;;;6.68;2.75;;;6.20;97.40;;;;;;5059071;28;20118;-67
2020/12/21 03:12:26;;;;;;;8.02;2.55;;;6.20;97.30;;;;;;5053600;28;20107;-67
2020/12/21 03:14:57;;;;;;;5.35;2.50;;;6.20;97.40;;;;;;5072726;28;20041;-67
2020/12/21 03:24:57;;;;;;;5.15;2.58;;;6.10;97.60;;;;;;5072481;28;20116;-67
2020/12/21 03:27:27;;;;;;;5.47;2.40;;;6.10;97.70;;;;;;5052975;28;20064;-67
2020/12/21 03:29:59;;;;;;;7.00;2.97;;;6.10;97.50;;;;;;5068764;28;20055;-67
2020/12/21 03:32:30;;;;;;;11.10;3.70;;;6.10;97.60;;;;;;5067831;28;20053;-67
2020/12/21 03:35:04;;;;;;;7.22;3.15;;;6.00;97.70;;;;;;5067723;28;20036;-67
2020/12/21 03:37:57;;;;;;;11.00;3.90;;;6.00;97.50;;;;;;5068481;28;20655;-66
2020/12/21 03:40:29;;;;;;;6.68;3.33;;;6.00;97.70;;;;;;5058781;28;20050;-67
2020/12/21 03:43:12;;;;;;;8.75;3.92;;;6.00;97.70;;;;;;5060390;28;20040;-66
2020/12/21 03:45:44;;;;;;;11.23;3.03;;;6.00;97.80;;;;;;5061117;28;20048;-67
2020/12/21 03:48:13;;;;;;;13.13;3.55;;;6.00;97.80;;;;;;5071802;28;20115;-67
2020/12/21 03:54:59;;;;;;;6.07;2.92;;;5.90;97.90;;;;;;5070843;28;20051;-67
2020/12/21 03:57:31;;;;;;;11.52;3.28;;;5.90;97.80;;;;;;5063984;28;20048;-67
2020/12/21 04:00:00;;;;;;;7.35;3.78;;;5.90;97.80;;;;;;5070346;28;20138;-67
2020/12/21 04:02:33;;;;;;;13.27;3.70;;;5.90;97.80;;;;;;5075709;28;20047;-67
2020/12/21 04:05:05;;;;;;;11.13;3.58;;;5.80;97.90;;;;;;5076846;28;20464;-67
2020/12/21 04:07:37;;;;;;;7.05;2.50;;;5.80;97.90;;;;;;5055039;28;20065;-67
2020/12/21 04:17:33;;;;;;;8.20;2.97;;;5.80;97.90;;;;;;5075385;28;20035;-67
2020/12/21 04:20:05;;;;;;;9.65;3.13;;;5.80;98.00;;;;;;5072280;28;20040;-67
2020/12/21 04:22:33;;;;;;;8.27;3.38;;;5.80;97.80;;;;;;5075443;28;20044;-66
2020/12/21 04:25:05;;;;;;;9.23;3.30;;;5.80;97.80;;;;;;5055695;28;20041;-67
2020/12/21 04:27:32;;;;;;;7.93;3.00;;;5.80;98.00;;;;;;5071247;28;20053;-67
2020/12/21 04:30:04;;;;;;;7.40;3.30;;;5.70;98.00;;;;;;5071354;28;20036;-67
2020/12/21 04:32:36;;;;;;;8.85;2.88;;;5.70;97.90;;;;;;5055536;28;20048;-67
2020/12/21 04:35:04;;;;;;;5.88;2.75;;;5.80;97.80;;;;;;5055436;28;20064;-67
2020/12/21 04:37:36;;;;;;;10.02;3.47;;;5.70;97.90;;;;;;5056509;28;20428;-67
2020/12/21 04:40:08;;;;;;;9.13;3.47;;;5.70;97.90;;;;;;5055837;28;20495;-67
2020/12/21 04:42:53;;;;;;;10.98;3.17;;;5.70;98.00;;;;;;5071143;28;20111;-67
2020/12/21 04:45:40;;;;;;;9.30;3.20;;;5.70;98.10;;;;;;5071892;28;20044;-67
2020/12/21 04:52:36;;;;;;;8.57;2.60;;;5.70;98.10;;;;;;5069759;28;20040;-67
2020/12/21 04:55:08;;;;;;;7.20;2.17;;;5.70;98.10;;;;;;5055375;28;20120;-67
2020/12/21 04:57:37;;;;;;;5.38;2.60;;;5.70;98.20;;;;;;5069520;28;20476;-67
2020/12/21 05:04:47;;;;;;;11.95;2.92;;;5.70;98.30;;;;;;5074486;28;20030;-67
2020/12/21 05:07:44;;;;;;;6.85;2.75;;;5.70;98.10;;;;;;5054852;28;20041;-67
2020/12/21 05:10:11;;;;;;;8.25;2.83;;;5.70;98.20;;;;;;5069706;28;20048;-67
2020/12/21 05:20:15;;;;;;;9.73;3.10;;;5.70;97.90;;;;;;5074241;28;20106;-67
2020/12/21 05:22:50;;;;;;;9.20;3.15;;;5.70;98.10;;;;;;5068446;28;20037;-67
2020/12/21 05:25:20;;;;;;;10.55;2.88;;;5.70;98.10;;;;;;5074521;28;20122;-66
2020/12/21 05:27:47;;;;;;;12.73;3.20;;;5.60;97.90;;;;;;5074132;28;20093;-67
2020/12/21 05:30:15;;;;;;;9.90;3.35;;;5.60;98.10;;;;;;5074398;28;20101;-67
2020/12/21 05:32:59;;;;;;;11.77;2.95;;;5.60;98.10;;;;;;5054398;28;20041;-67
2020/12/21 05:35:34;;;;;;;8.57;2.63;;;5.60;98.20;;;;;;5055150;28;20048;-66
2020/12/21 05:38:05;;;;;;;9.15;2.40;;;5.50;98.30;;;;;;5073982;28;20040;-66
2020/12/21 05:40:51;;;;;;;15.82;3.03;;;5.60;98.30;;;;;;5070785;28;20048;-67
2020/12/21 05:47:49;;;;;;;9.55;2.72;;;5.50;98.10;;;;;;5060126;28;20146;-67
2020/12/21 05:50:21;;;;;;;6.70;3.00;;;5.50;98.20;;;;;;5072651;28;20492;-67
2020/12/21 05:52:54;;;;;;;10.52;2.42;;;5.40;98.20;;;;;;5073918;28;20064;-67
2020/12/21 05:55:21;;;;;;;8.05;2.85;;;5.60;98.30;;;;;;5073818;28;20120;-67
2020/12/21 05:57:59;;;;;;;13.43;3.50;;;5.50;98.30;;;;;;5072021;28;20044;-67
2020/12/21 06:00:50;;;;;;;10.73;3.58;;;5.50;98.20;;;;;;5057124;28;20049;-67
2020/12/21 06:04:01;;;;;;;9.23;2.75;;;5.50;98.30;;;;;;5056456;28;20043;-66
2020/12/21 06:06:49;;;;;;;16.90;3.70;;;5.50;98.50;;;;;;5063354;28;20499;-67
2020/12/21 06:09:28;;;;;;;9.65;3.40;;;5.40;98.40;;;;;;5087847;28;20057;-67
2020/12/21 06:11:59;;;;;;;10.25;3.42;;;5.40;98.50;;;;;;5073635;28;20048;-66
2020/12/21 06:14:41;;;;;;;10.43;3.53;;;5.40;98.50;;;;;;5053725;28;20048;-66
2020/12/21 06:17:21;;;;;;;11.57;3.40;;;5.40;98.60;;;;;;5070414;28;20119;-66
2020/12/21 06:20:07;;;;;;;9.20;3.15;;;5.40;98.50;;;;;;5073373;28;20086;-67
2020/12/21 06:26:56;;;;;;;13.65;4.18;;;5.40;98.70;;;;;;5073143;28;20521;-66
2020/12/21 06:29:28;;;;;;;7.43;3.22;;;5.40;98.70;;;;;;5068695;28;20051;-66
2020/12/21 06:32:07;;;;;;;13.88;4.25;;;5.40;98.70;;;;;;5073420;28;20063;-67
2020/12/21 06:34:39;;;;;;;9.48;3.35;;;5.40;98.80;;;;;;5073298;28;20499;-67
2020/12/21 06:37:32;;;;;;;12.90;4.53;;;5.40;98.90;;;;;;5073274;28;20055;-67
2020/12/21 06:40:12;;;;;;;10.00;3.70;;;5.40;98.80;;;;;;5057044;28;20491;-67
2020/12/21 06:47:00;;;;;;;14.77;4.28;;;5.40;98.80;;;;;;5058261;28;20155;-66
2020/12/21 06:49:33;;;;;;;14.18;3.80;;;5.40;98.80;;;;;;5068107;28;20044;-66
2020/12/21 06:59:42;;;;;;;9.00;3.55;;;5.40;98.90;;;;;;5052588;28;20127;-67
2020/12/21 07:09:43;;;;;;;9.50;3.30;;;5.40;99.30;;;;;;5068551;28;20066;-67
2020/12/21 07:12:14;;;;;;;9.55;3.53;;;5.40;99.10;;;;;;5066165;28;20040;-67
2020/12/21 07:14:43;;;;;;;6.95;3.03;;;5.50;99.10;;;;;;5074594;28;20065;-67
2020/12/21 07:20:56;;;;;;;13.68;3.53;;;5.50;99.00;;;;;;5068106;28;20110;-67
2020/12/21 07:23:30;;;;;;;7.00;3.47;;;5.50;98.90;;;;;;5076446;28;20052;-67
2020/12/21 07:29:42;;;;;;;8.40;3.50;;;5.50;98.80;;;;;;5076210;28;20399;-67
2020/12/21 07:32:11;;;;;;;10.70;3.53;;;5.50;99.40;;;;;;5074594;28;20037;-67
2020/12/21 07:34:40;;;;;;;8.73;3.28;;;5.50;99.20;;;;;;5073786;28;20036;-67
2020/12/21 07:37:12;;;;;;;13.30;3.33;;;5.50;99.10;;;;;;5072505;28;20560;-67
2020/12/21 07:39:50;;;;;;;10.15;4.22;;;5.60;99.20;;;;;;5056369;28;20041;-67
2020/12/21 07:42:19;;;;;;;8.60;4.13;;;5.60;99.40;;;;;;5072841;28;20126;-67
2020/12/21 07:45:06;;;;;;;15.50;4.43;;;5.60;99.40;;;;;;5076237;28;20048;-66
2020/12/21 07:47:45;;;;;;;9.52;4.55;;;5.60;99.40;;;;;;5070428;28;20040;-67
2020/12/21 07:50:16;;;;;;;13.25;3.78;;;5.60;99.30;;;;;;5062850;28;20404;-67
2020/12/21 07:57:12;;;;;;;10.52;3.55;;;5.60;99.40;;;;;;5071312;28;20095;-67
2020/12/21 08:00:00;;;;;;;10.55;4.50;;;5.60;99.30;;;;;;5073256;28;20048;-67
2020/12/21 08:07:10;;;;;;;11.35;3.30;;;5.70;99.30;;;;;;5066052;28;20034;-66
2020/12/21 08:09:44;;;;;;;8.48;3.63;;;5.70;99.20;;;;;;5071564;28;20041;-66
2020/12/21 08:12:12;;;;;;;14.52;3.92;;;5.70;99.40;;;;;;5072174;28;20041;-65
2020/12/21 08:14:42;;;;;;;9.60;4.32;;;5.70;99.30;;;;;;5075881;28;20051;-65
2020/12/21 08:17:45;;;;;;;11.15;4.20;;;5.70;99.30;;;;;;5071835;28;20040;-66
2020/12/21 08:20:20;;;;;;;7.60;3.15;;;5.70;99.30;;;;;;5057814;28;20040;-65
2020/12/21 08:27:13;;;;;;;11.30;3.22;;;5.70;99.10;;;;;;5075212;28;20398;-65
2020/12/21 08:29:44;;;;;;;14.20;4.68;;;5.80;99.10;;;;;;5073118;28;20048;-65
2020/12/21 08:32:14;;;;;;;9.18;4.45;;;5.80;99.10;;;;;;5075414;28;20036;-65
2020/12/21 08:34:57;;;;;;;12.07;5.07;;;5.80;99.10;;;;;;5073034;28;20085;-65
2020/12/21 08:38:11;;;;;;;10.35;4.43;;;5.80;99.50;;;;;;5075232;28;20488;-65
2020/12/21 08:40:38;;;;;;;9.95;5.13;;;5.80;99.70;;;;;;5069974;28;20446;-64
2020/12/21 08:43:10;;;;;;;14.55;5.88;;;5.80;99.60;;;;;;5075257;28;20051;-65
2020/12/21 08:45:38;;;;;;;14.02;5.68;;;5.80;99.60;;;;;;5074967;28;20048;-65
2020/12/21 08:48:10;;;;;;;14.02;4.25;;;5.90;99.30;;;;;;5057453;28;20041;-65
2020/12/21 08:50:43;;;;;;;9.43;3.97;;;5.90;99.30;;;;;;5075020;28;20072;-65
2020/12/21 08:53:16;;;;;;;11.03;4.97;;;5.90;99.30;;;;;;5072957;28;20111;-65
2020/12/21 08:55:47;;;;;;;10.10;4.20;;;5.90;99.30;;;;;;5071781;28;20427;-66
2020/12/21 08:58:13;;;;;;;12.70;5.28;;;5.90;99.10;;;;;;5069855;28;20045;-65
2020/12/21 09:00:46;;;;;;;14.15;5.15;;;5.90;99.00;;;;;;5074802;28;20051;-66
2020/12/21 09:03:48;;;;;;;12.45;4.28;;;5.90;99.00;;;;;;5075841;28;20041;-65
2020/12/21 09:06:52;;;;;;;7.60;4.20;;;6.00;99.10;;;;;;5068207;28;20040;-65
2020/12/21 09:09:26;;;;;;;12.60;3.92;;;6.00;99.00;;;;;;5074297;28;20041;-66
2020/12/21 09:11:58;;;;;;;11.77;4.80;;;6.00;99.10;;;;;;5069901;28;20120;-66
2020/12/21 09:14:24;;;;;;;8.52;3.67;;;6.00;99.00;;;;;;5074645;28;20045;-65
2020/12/21 09:16:56;;;;;;;14.77;4.75;;;6.00;99.00;;;;;;5074496;28;20388;-66
2020/12/21 09:19:46;;;;;;;12.60;4.05;;;6.00;99.00;;;;;;5074818;28;20117;-66
2020/12/21 09:22:40;;;;;;;11.40;4.22;;;6.00;99.00;;;;;;5070912;28;20056;-66
2020/12/21 09:25:08;;;;;;;8.95;3.30;;;6.00;99.00;;;;;;5074334;28;20036;-66
2020/12/21 09:27:33;;;;;;;10.10;3.80;;;6.00;99.00;;;;;;5074588;28;20094;-66
2020/12/21 09:34:00;;;;;;;9.75;3.88;;;6.10;99.00;;;;;;5059745;28;20031;-68
2020/12/21 09:36:33;;;;;;;8.93;3.15;;;6.10;98.80;;;;;;5065266;28;20040;-69
2020/12/21 09:39:02;;;;;;;10.82;3.70;;;6.20;98.90;;;;;;5069082;28;20094;-68
2020/12/21 09:41:31;;;;;;;12.18;3.30;;;6.10;98.90;;;;;;5068984;28;20435;-67
2020/12/21 09:44:03;;;;;;;11.25;3.38;;;6.20;99.00;;;;;;5058408;28;20041;-67
2020/12/21 09:53:29;;;;;;;11.18;5.10;;;6.30;98.90;;;;;;5070026;28;20044;-67
2020/12/21 09:56:50;;;;;;;11.88;4.20;;;6.30;99.50;;;;;;5073836;28;20068;-67
2020/12/21 09:59:18;;;;;;;7.43;2.78;;;6.30;99.10;;;;;;5071506;28;20092;-67
2020/12/21 10:01:56;;;;;;;10.43;3.08;;;6.40;98.80;;;;;;5073245;28;20541;-68
2020/12/21 10:04:21;;;;;;;7.18;2.40;;;6.40;98.50;;;;;;5067427;28;20044;-67
2020/12/21 10:07:06;;;;;;;10.65;3.30;;;6.40;98.80;;;;;;5073572;28;20066;-67
2020/12/21 10:09:34;;;;;;;10.45;3.75;;;6.40;98.90;;;;;;5073178;28;20124;-67
2020/12/21 10:12:03;;;;;;;9.05;3.28;;;6.50;98.90;;;;;;5054379;28;20086;-67
2020/12/21 10:18:09;;;;;;;7.18;2.30;;;6.60;98.70;;;;;;5073160;28;20058;-68
2020/12/21 10:24:22;;;;;;;7.88;2.65;;;6.70;98.60;;;;;;5072962;28;20042;-67
2020/12/21 10:26:52;;;;;;;7.18;2.38;;;6.80;98.60;;;;;;5073346;28;20053;-71
2020/12/21 10:29:24;;;;;;;6.22;2.60;;;6.80;98.50;;;;;;5067337;28;20053;-68
2020/12/21 10:31:59;;;;;;;5.30;2.28;;;6.80;98.60;;;;;;5073466;28;20098;-68
2020/12/21 10:34:26;;;;;;;6.88;2.40;;;6.90;98.60;;;;;;5073737;28;20059;-68
2020/12/21 10:36:58;;;;;;;5.35;2.28;;;6.90;98.60;;;;;;5073945;28;20060;-68
2020/12/21 10:46:57;;;;;;;9.95;2.45;;;7.00;97.90;;;;;;5071151;28;20044;-67
2020/12/21 10:49:27;;;;;;;7.05;1.88;;;7.20;97.90;;;;;;5069861;28;20041;-66
2020/12/21 10:52:03;;;;;;;12.57;3.17;;;7.20;98.10;;;;;;5077243;28;20048;-68
2020/12/21 10:54:29;;;;;;;5.18;2.20;;;7.20;97.90;;;;;;5077431;28;20052;-67
2020/12/21 10:56:55;;;;;;;10.85;2.75;;;7.20;97.90;;;;;;5076367;28;20083;-67
2020/12/21 10:59:50;;;;;;;4.97;2.03;;;7.30;97.70;;;;;;5076628;28;20056;-68
2020/12/21 11:02:17;;;;;;;8.27;2.55;;;7.30;98.20;;;;;;5076866;28;20377;-66
2020/12/21 11:09:20;;;;;;;6.40;2.30;;;7.30;97.70;;;;;;5072003;28;20031;-66
2020/12/21 11:11:55;;;;;;;11.07;2.15;;;7.40;97.50;;;;;;5075633;28;20064;-67
2020/12/21 11:14:22;;;;;;;8.48;2.30;;;7.40;97.60;;;;;;5076614;28;20480;-67
2020/12/21 11:17:40;;;;;;;5.05;2.80;;;7.40;97.90;;;;;;5076587;28;20044;-67
2020/12/21 11:20:17;;;;;;;5.68;1.90;;;7.40;97.70;;;;;;5076453;28;20184;-68
2020/12/21 11:22:44;;;;;;;5.95;1.90;;;7.50;97.40;;;;;;5072347;28;20047;-67
2020/12/21 11:29:01;;;;;;;11.02;2.47;;;7.50;97.30;;;;;;5076176;28;20031;-69
2020/12/21 11:31:54;;;;;;;10.93;2.15;;;7.50;97.10;;;;;;5056505;28;20045;-67
2020/12/21 11:34:31;;;;;;;8.32;2.70;;;7.50;97.00;;;;;;5070973;28;20477;-67
2020/12/21 11:36:59;;;;;;;8.90;2.25;;;7.60;97.00;;;;;;5056575;28;20515;-67
2020/12/21 11:39:31;;;;;;;10.65;2.90;;;7.50;97.00;;;;;;5071754;28;20049;-68
2020/12/21 11:42:09;;;;;;;6.88;2.03;;;7.50;96.60;;;;;;5076508;28;20048;-68
2020/12/21 11:44:38;;;;;;;8.90;2.83;;;7.50;96.80;;;;;;5076359;28;20494;-68
2020/12/21 11:47:28;;;;;;;11.13;3.10;;;7.40;96.80;;;;;;5076076;28;20070;-67
2020/12/21 11:49:58;;;;;;;6.43;2.78;;;7.50;97.30;;;;;;5076112;28;20113;-69
2020/12/21 11:52:41;;;;;;;6.80;2.17;;;7.60;97.30;;;;;;5076127;28;20043;-71
2020/12/21 11:55:08;;;;;;;5.70;1.95;;;7.60;97.30;;;;;;5061591;28;20045;-71
2020/12/21 11:57:40;;;;;;;8.70;2.20;;;7.60;97.30;;;;;;5076069;28;20431;-71
2020/12/21 12:00:12;;;;;;;7.95;2.30;;;7.50;97.40;;;;;;5061636;28;20063;-69
2020/12/21 12:02:50;;;;;;;7.72;2.67;;;7.60;97.40;;;;;;5075652;28;20044;-69
2020/12/21 12:05:20;;;;;;;5.57;1.80;;;7.60;97.00;;;;;;5075692;28;20051;-71
2020/12/21 12:11:58;;;;;;;7.35;2.05;;;7.70;97.30;;;;;;5075673;28;20040;-72
2020/12/21 12:14:30;;;;;;;4.10;1.35;;;7.70;97.30;;;;;;5075636;28;20052;-70
2020/12/21 12:16:56;;;;;;;6.07;1.95;;;7.70;96.90;;;;;;5075731;28;20339;-70
2020/12/21 12:19:28;;;;;;;10.27;2.55;;;7.70;96.90;;;;;;5075479;28;20087;-70
2020/12/21 12:22:06;;;;;;;9.52;2.40;;;7.80;96.90;;;;;;5075994;28;20053;-71
2020/12/21 12:24:59;;;;;;;5.80;2.22;;;7.80;97.00;;;;;;5071719;28;20115;-71
2020/12/21 12:27:31;;;;;;;4.88;2.20;;;7.80;97.20;;;;;;5059683;28;20076;-70
2020/12/21 12:29:59;;;;;;;8.93;2.78;;;7.80;97.00;;;;;;5074209;28;20404;-67
2020/12/21 12:36:17;;;;;;;9.93;2.60;;;7.80;96.80;;;;;;5074497;28;20501;-67
2020/12/21 12:39:31;;;;;;;10.82;2.78;;;8.00;97.20;;;;;;5075112;28;20054;-70
2020/12/21 12:41:58;;;;;;;8.25;2.60;;;7.90;97.10;;;;;;5073930;28;20040;-70
2020/12/21 12:44:30;;;;;;;8.45;2.72;;;7.90;97.80;;;;;;5075376;28;20050;-71
2020/12/21 12:46:57;;;;;;;7.75;2.75;;;7.90;97.40;;;;;;5074140;28;20102;-69
2020/12/21 12:49:28;;;;;;;11.18;3.20;;;7.90;97.60;;;;;;5070499;28;20040;-69
2020/12/21 12:51:56;;;;;;;9.93;3.53;;;7.90;97.80;;;;;;5075758;28;20055;-71
2020/12/21 12:54:29;;;;;;;9.05;4.10;;;7.90;97.90;;;;;;5073853;28;20408;-69
2020/12/21 12:56:56;;;;;;;6.30;2.95;;;7.90;97.70;;;;;;5074549;28;20044;-71
2020/12/21 13:14:40;;;;;;;11.52;2.42;;;7.90;97.50;;;;;;5074362;28;20043;-70
2020/12/21 13:17:34;;;;;;;7.15;2.38;;;7.90;97.60;;;;;;5074392;28;20507;-69
2020/12/21 13:20:01;;;;;;;9.57;2.60;;;7.90;97.30;;;;;;5074424;28;20090;-71
2020/12/21 13:26:59;;;;;;;10.68;2.08;;;7.90;97.90;;;;;;5068417;28;20116;-71
2020/12/21 13:29:30;;;;;;;11.43;2.65;;;7.80;97.60;;;;;;5054410;28;20076;-71
2020/12/21 13:31:58;;;;;;;12.70;2.47;;;7.80;97.60;;;;;;5086096;28;20056;-71
2020/12/21 13:34:30;;;;;;;7.63;2.50;;;7.70;98.00;;;;;;5054306;28;20044;-72
2020/12/21 13:37:01;;;;;;;6.85;2.50;;;7.80;98.10;;;;;;5054457;28;20037;-70
2020/12/21 13:39:28;;;;;;;9.80;3.80;;;7.90;98.00;;;;;;5073167;28;20391;-69
2020/12/21 13:42:28;;;;;;;7.75;2.40;;;7.80;97.90;;;;;;5069782;28;20050;-70
2020/12/21 13:45:00;;;;;;;7.20;2.35;;;7.80;98.10;;;;;;5073748;28;20438;-70
2020/12/21 13:51:12;;;;;;;10.40;3.25;;;7.80;98.80;;;;;;5073789;28;20325;-70
2020/12/21 13:53:38;;;;;;;8.98;3.83;;;8.00;98.90;;;;;;5073918;28;20044;-70
2020/12/21 13:56:15;;;;;;;7.40;3.47;;;7.90;99.10;;;;;;5067597;28;20143;-70
2020/12/21 13:58:43;;;;;;;8.05;2.80;;;7.80;98.80;;;;;;5067332;28;20099;-68
2020/12/21 14:01:11;;;;;;;9.07;3.83;;;7.90;99.00;;;;;;5073400;28;20043;-68
2020/12/21 14:03:39;;;;;;;8.48;2.70;;;7.90;99.00;;;;;;5073422;28;20067;-67
2020/12/21 14:06:12;;;;;;;7.60;2.92;;;7.90;98.70;;;;;;5073745;28;20049;-68
2020/12/21 14:08:40;;;;;;;7.32;2.70;;;7.80;98.70;;;;;;5053941;28;20116;-67
2020/12/21 14:11:08;;;;;;;8.98;2.15;;;7.80;98.70;;;;;;5069090;28;20040;-68
2020/12/21 14:13:40;;;;;;;5.85;1.90;;;7.90;99.10;;;;;;5066811;28;20044;-68
2020/12/21 14:16:40;;;;;;;10.13;3.85;;;7.80;98.60;;;;;;5068899;28;20036;-68
2020/12/21 14:23:39;;;;;;;7.13;3.30;;;7.80;98.90;;;;;;5059474;28;20086;-67
2020/12/21 14:26:11;;;;;;;7.05;2.83;;;7.90;99.00;;;;;;5068768;28;20523;-70
2020/12/21 14:28:39;;;;;;;10.38;4.22;;;7.90;99.00;;;;;;5073497;28;20044;-69
2020/12/21 14:31:11;;;;;;;10.30;4.65;;;8.10;99.00;;;;;;5073587;28;20098;-65
2020/12/21 14:33:38;;;;;;;8.82;3.70;;;7.90;99.20;;;;;;5053368;28;20041;-66
2020/12/21 14:36:10;;;;;;;7.95;2.60;;;7.90;98.90;;;;;;5068754;28;20098;-65
2020/12/21 14:38:38;;;;;;;7.07;1.92;;;7.90;98.90;;;;;;5069246;28;20132;-65
2020/12/21 14:41:11;;;;;;;8.07;1.90;;;7.90;99.10;;;;;;5073141;28;20045;-64
2020/12/21 14:43:38;;;;;;;6.70;1.95;;;7.90;99.00;;;;;;5073922;28;20037;-65
2020/12/21 14:46:14;;;;;;;5.47;1.88;;;7.90;99.30;;;;;;5070059;28;20040;-65
2020/12/21 14:49:12;;;;;;;7.40;2.15;;;7.90;99.30;;;;;;5069759;28;20056;-65
2020/12/21 14:56:15;;;;;;;8.30;2.55;;;7.90;99.10;;;;;;5072686;28;20082;-67
2020/12/21 14:58:47;;;;;;;4.75;1.90;;;7.90;99.10;;;;;;5069247;28;20052;-67
2020/12/21 15:01:16;;;;;;;10.95;2.88;;;7.90;99.10;;;;;;5072802;28;20437;-66
2020/12/21 15:03:47;;;;;;;4.05;2.03;;;7.90;99.20;;;;;;5073677;28;20040;-68
2020/12/21 15:06:26;;;;;;;7.50;2.10;;;8.00;99.30;;;;;;5072866;28;20105;-67
2020/12/21 15:08:58;;;;;;;4.05;1.92;;;7.90;99.30;;;;;;5073045;28;20477;-67
2020/12/21 15:18:41;;;;;;;7.68;2.20;;;7.80;99.30;;;;;;5052958;28;20062;-66
2020/12/21 15:21:10;;;;;;;5.85;2.13;;;7.90;99.30;;;;;;5069022;28;20048;-66
2020/12/21 15:23:38;;;;;;;4.95;1.88;;;7.70;99.70;;;;;;5073069;28;20397;-67
2020/12/21 15:26:10;;;;;;;6.63;2.47;;;7.80;99.90;;;;;;5067548;28;20476;-66
2020/12/21 15:28:38;;;;;;;4.72;2.00;;;7.80;99.80;;;;;;5062957;28;20043;-67
2020/12/21 15:31:10;;;;;;;5.07;2.00;;;7.80;99.90;;;;;;5067134;28;20068;-67
2020/12/21 15:33:37;;;;;;;4.95;2.00;;;7.80;99.90;;;;;;5069746;28;20111;-72
2020/12/21 15:36:14;;;;;;;8.60;2.97;;;7.80;99.90;;;;;;5069526;28;20417;-68
2020/12/21 15:38:42;;;;;;;5.10;2.58;;;7.80;99.90;;;;;;5071256;28;20056;-74
2020/12/21 15:41:08;;;;;;;8.23;3.25;;;7.70;99.90;;;;;;5075129;28;20045;-72
2020/12/21 15:51:12;;;;;;;8.65;2.45;;;7.70;99.90;;;;;;5075871;28;20117;-72
2020/12/21 15:54:08;;;;;;;8.85;2.97;;;7.70;99.90;;;;;;5072193;28;20037;-66
2020/12/21 15:56:46;;;;;;;7.47;2.58;;;7.70;99.90;;;;;;5059648;28;20043;-71
2020/12/21 15:59:12;;;;;;;4.68;2.47;;;7.70;99.90;;;;;;5074043;28;20136;-67
2020/12/21 16:06:08;;;;;;;8.93;2.65;;;7.70;99.90;;;;;;5060736;28;20035;-72
2020/12/21 16:08:37;;;;;;;15.35;2.97;;;7.70;99.90;;;;;;5071775;28;20044;-70
2020/12/21 16:11:34;;;;;;;5.43;2.60;;;7.70;99.90;;;;;;5071772;28;20094;-71
2020/12/21 16:14:24;;;;;;;5.57;2.72;;;7.70;99.90;;;;;;5059343;28;20063;-73
2020/12/21 16:21:11;;;;;;;5.13;2.53;;;7.80;99.90;;;;;;5075509;28;20098;-67
2020/12/21 16:28:01;;;;;;;9.70;3.53;;;7.80;99.90;;;;;;5075345;28;20094;-71
2020/12/21 16:30:38;;;;;;;8.00;3.38;;;7.80;99.90;;;;;;5055769;28;20369;-73
2020/12/21 16:33:10;;;;;;;7.95;4.80;;;7.80;99.90;;;;;;5068308;28;20550;-68
2020/12/21 16:35:42;;;;;;;11.68;6.00;;;7.70;99.90;;;;;;5069860;28;20185;-69
2020/12/21 16:38:15;;;;;;;9.00;5.35;;;7.80;99.90;;;;;;5075191;28;20047;-69
2020/12/21 16:40:48;;;;;;;9.48;4.35;;;7.80;99.90;;;;;;5074938;28;20397;-68
2020/12/21 16:43:15;;;;;;;8.25;4.90;;;7.80;99.90;;;;;;5075394;28;20061;-69
2020/12/21 16:45:46;;;;;;;7.38;4.03;;;7.80;99.90;;;;;;5075089;28;20037;-69
2020/12/21 16:48:21;;;;;;;7.65;3.53;;;7.80;99.90;;;;;;5075229;28;20406;-71
2020/12/21 16:51:04;;;;;;;10.07;4.15;;;7.80;99.90;;;;;;5074865;28;20053;-73
2020/12/21 16:58:06;;;;;;;7.93;3.30;;;7.80;99.90;;;;;;5074760;28;20430;-69
2020/12/21 17:00:37;;;;;;;8.20;3.75;;;7.80;99.90;;;;;;5075073;28;20080;-69
2020/12/21 17:03:15;;;;;;;7.38;3.95;;;7.80;99.90;;;;;;5070760;28;20048;-70
2020/12/21 17:06:08;;;;;;;8.07;3.40;;;7.80;99.90;;;;;;5071585;28;20040;-69
2020/12/21 17:08:46;;;;;;;7.95;3.55;;;7.80;99.90;;;;;;5058023;28;20052;-68
2020/12/21 17:15:32;;;;;;;6.40;3.50;;;7.80;99.90;;;;;;5074269;28;20030;-70
2020/12/21 17:18:02;;;;;;;7.72;3.45;;;7.80;99.90;;;;;;5074573;28;20047;-67
2020/12/21 17:20:33;;;;;;;8.60;4.40;;;7.80;99.90;;;;;;5074300;28;20040;-67